Time;durP1;ratioP1;P1;durP2;ratioP2;P2;SDS_P1;SDS_P2;PMS_P1;PMS_P2;Temp;Humidity;BMP_temperature;BMP_pressure;BME280_temperature;BME280_humidity;BME280_pressure;Samples;Min_cycle;Max_cycle;Signal;HPM_P1;HPM_P2
2022/04/01 00:00:01;;;;;;;29.15;26.80;;;4.40;99.90;;;;;;5016228;28;20033;-80
2022/04/01 00:02:28;;;;;;;28.88;26.13;;;4.40;99.90;;;;;;5031727;28;20037;-80
2022/04/01 00:04:54;;;;;;;27.25;24.67;;;4.30;99.90;;;;;;5023299;28;20034;-79
2022/04/01 00:07:20;;;;;;;26.23;23.90;;;4.30;99.90;;;;;;5016091;28;20030;-80
2022/04/01 00:09:46;;;;;;;29.38;26.58;;;4.30;99.90;;;;;;5039617;28;20030;-79
2022/04/01 00:12:13;;;;;;;27.88;25.25;;;4.30;99.90;;;;;;5031513;28;20045;-80
2022/04/01 00:14:39;;;;;;;27.40;24.75;;;4.30;99.90;;;;;;5030311;28;20041;-82
2022/04/01 00:17:05;;;;;;;28.10;25.15;;;4.30;99.90;;;;;;5033671;28;20044;-81
2022/04/01 00:19:32;;;;;;;27.15;24.63;;;4.20;99.90;;;;;;5032205;28;20033;-80
2022/04/01 00:21:59;;;;;;;27.27;24.80;;;4.20;99.90;;;;;;5015955;28;20041;-81
2022/04/01 00:24:25;;;;;;;31.75;25.88;;;4.20;99.90;;;;;;5028134;28;20040;-82
2022/04/01 00:26:51;;;;;;;25.65;23.13;;;4.20;99.90;;;;;;5028618;28;20125;-80
2022/04/01 00:29:17;;;;;;;26.77;24.05;;;4.20;99.90;;;;;;5015481;28;20052;-79
2022/04/01 00:32:01;;;;;;;27.10;23.65;;;4.20;99.90;;;;;;5002070;28;20053;-80
2022/04/01 00:34:33;;;;;;;25.63;23.02;;;4.30;99.90;;;;;;5028785;28;20029;-80
2022/04/01 00:37:01;;;;;;;30.30;27.27;;;4.30;99.90;;;;;;5032867;28;20037;-80
2022/04/01 00:39:31;;;;;;;29.17;26.13;;;4.20;99.90;;;;;;5033725;28;20030;-79
2022/04/01 00:42:01;;;;;;;28.65;25.63;;;4.30;99.90;;;;;;5014807;28;20397;-80
2022/04/01 00:44:34;;;;;;;32.40;26.75;;;4.20;99.90;;;;;;5026817;28;20493;-81
2022/04/01 00:47:04;;;;;;;28.45;25.70;;;4.20;99.90;;;;;;5029475;28;20030;-78
2022/04/01 00:49:31;;;;;;;29.45;26.60;;;4.20;99.90;;;;;;5015536;28;20033;-80
2022/04/01 00:52:00;;;;;;;27.90;25.20;;;4.20;99.90;;;;;;5031319;28;20045;-79
2022/04/01 00:54:26;;;;;;;25.98;23.55;;;4.20;99.90;;;;;;4997721;28;20049;-80
2022/04/01 00:56:54;;;;;;;30.23;27.42;;;4.10;99.90;;;;;;5036757;28;20045;-81
2022/04/01 00:59:21;;;;;;;29.35;25.13;;;4.10;99.90;;;;;;5036389;28;20463;-81
2022/04/01 01:01:49;;;;;;;28.67;25.73;;;4.10;99.90;;;;;;5014505;28;20046;-80
2022/04/01 01:04:17;;;;;;;26.83;24.33;;;4.10;99.90;;;;;;5036515;28;20041;-80
2022/04/01 01:06:45;;;;;;;28.48;25.13;;;4.10;99.90;;;;;;5017791;28;20041;-80
2022/04/01 01:09:14;;;;;;;26.35;23.95;;;4.10;99.90;;;;;;5017339;28;20041;-80
2022/04/01 01:11:41;;;;;;;28.33;24.70;;;4.10;99.90;;;;;;5041112;28;20505;-80
2022/04/01 01:14:09;;;;;;;26.05;23.52;;;4.10;99.90;;;;;;5037015;28;20041;-81
2022/04/01 01:16:38;;;;;;;27.23;24.80;;;4.10;99.90;;;;;;5041686;28;20033;-80
2022/04/01 01:19:12;;;;;;;25.95;23.50;;;4.10;99.90;;;;;;5039328;28;20041;-80
2022/04/01 01:21:40;;;;;;;28.27;25.60;;;4.10;99.90;;;;;;5016097;28;20394;-80
2022/04/01 01:24:11;;;;;;;28.38;25.60;;;4.10;99.90;;;;;;5028680;28;20033;-79
2022/04/01 01:26:39;;;;;;;28.10;25.50;;;4.10;99.90;;;;;;5031103;28;20052;-79
2022/04/01 01:29:09;;;;;;;28.10;25.42;;;4.00;99.90;;;;;;5025927;28;20060;-80
2022/04/01 01:31:35;;;;;;;27.88;24.88;;;4.00;99.90;;;;;;5024122;28;20037;-80
2022/04/01 01:34:01;;;;;;;27.17;24.55;;;4.00;99.90;;;;;;5025020;28;20045;-80
2022/04/01 01:36:30;;;;;;;28.15;25.38;;;4.00;99.90;;;;;;5028276;28;20390;-79
2022/04/01 01:38:57;;;;;;;27.88;25.48;;;4.00;99.90;;;;;;5032614;28;20044;-79
2022/04/01 01:41:25;;;;;;;29.13;26.10;;;4.00;99.90;;;;;;5014798;28;20052;-81
2022/04/01 01:43:53;;;;;;;31.27;28.20;;;4.00;99.90;;;;;;5014743;28;20057;-80
2022/04/01 01:46:20;;;;;;;27.88;25.27;;;4.00;99.90;;;;;;4996133;28;20498;-81
2022/04/01 01:48:46;;;;;;;31.58;27.40;;;4.00;99.90;;;;;;5013822;28;20048;-81
2022/04/01 01:56:44;;;;;;;29.45;26.63;;;3.90;99.90;;;;;;5033858;28;20033;-82
2022/04/01 01:59:11;;;;;;;34.05;30.33;;;3.90;99.90;;;;;;5013879;28;20045;-81
2022/04/01 02:01:42;;;;;;;28.75;26.20;;;3.90;99.90;;;;;;5031766;28;20025;-78
2022/04/01 02:04:09;;;;;;;31.92;28.63;;;4.00;99.90;;;;;;5031387;28;20033;-81
2022/04/01 02:06:35;;;;;;;32.67;29.38;;;4.00;99.90;;;;;;5028298;28;20049;-81
2022/04/01 02:09:02;;;;;;;33.22;30.17;;;4.00;99.90;;;;;;5014105;28;20037;-81
2022/04/01 02:11:29;;;;;;;32.08;29.02;;;4.00;99.90;;;;;;5013567;28;20046;-81
2022/04/01 02:13:57;;;;;;;33.67;29.92;;;3.90;99.90;;;;;;5010534;28;20048;-81
2022/04/01 02:16:24;;;;;;;29.60;26.98;;;3.90;99.90;;;;;;5029728;28;20467;-80
2022/04/01 02:18:50;;;;;;;30.65;27.67;;;3.90;99.90;;;;;;5013316;28;20048;-81
2022/04/01 02:21:17;;;;;;;31.08;28.30;;;3.90;99.90;;;;;;5013388;28;20041;-81
2022/04/01 02:23:46;;;;;;;30.58;27.73;;;3.90;99.90;;;;;;5012647;28;20057;-81
2022/04/01 02:26:15;;;;;;;28.73;26.10;;;3.90;99.90;;;;;;5015054;28;20394;-81
2022/04/01 02:28:42;;;;;;;28.13;25.60;;;3.90;99.90;;;;;;5011947;28;20045;-80
2022/04/01 02:31:11;;;;;;;28.52;25.60;;;3.90;99.90;;;;;;5013963;28;20045;-80
2022/04/01 02:33:49;;;;;;;27.38;24.73;;;3.90;99.90;;;;;;5031506;28;20477;-81
2022/04/01 02:36:17;;;;;;;28.23;25.23;;;3.90;99.90;;;;;;5012173;28;20501;-81
2022/04/01 02:38:44;;;;;;;25.48;22.77;;;3.90;99.90;;;;;;5013265;28;20049;-81
2022/04/01 02:41:13;;;;;;;26.25;23.70;;;3.80;99.90;;;;;;5026498;28;20478;-81
2022/04/01 02:43:41;;;;;;;27.77;25.05;;;3.80;99.90;;;;;;5023382;28;20065;-81
2022/04/01 02:46:10;;;;;;;28.00;24.58;;;3.80;99.90;;;;;;5013006;28;20041;-82
2022/04/01 02:48:45;;;;;;;26.95;24.15;;;3.80;99.90;;;;;;5013506;28;20048;-79
2022/04/01 02:51:34;;;;;;;27.02;24.35;;;3.80;99.90;;;;;;5013749;28;20032;-81
2022/04/01 02:54:09;;;;;;;27.88;25.23;;;3.80;99.90;;;;;;5013239;28;20072;-80
2022/04/01 02:56:38;;;;;;;27.25;24.52;;;3.80;99.90;;;;;;5011242;28;20046;-81
2022/04/01 02:59:09;;;;;;;28.50;25.88;;;3.80;99.90;;;;;;5012913;28;20052;-80
2022/04/01 03:01:38;;;;;;;27.13;24.55;;;3.80;99.90;;;;;;5013077;28;20037;-79
2022/04/01 03:04:09;;;;;;;27.10;24.40;;;3.80;99.90;;;;;;5030540;28;20410;-80
2022/04/01 03:06:43;;;;;;;29.88;22.95;;;3.80;99.90;;;;;;5016708;28;20041;-79
2022/04/01 03:09:10;;;;;;;23.20;21.23;;;3.80;99.90;;;;;;5016853;28;20041;-79
2022/04/01 03:11:41;;;;;;;29.48;24.45;;;3.70;99.90;;;;;;5016226;28;20041;-81
2022/04/01 03:14:16;;;;;;;27.40;25.10;;;3.80;99.90;;;;;;5029327;28;20518;-80
2022/04/01 03:17:05;;;;;;;25.48;23.10;;;3.80;99.90;;;;;;5002781;28;20042;-80
2022/04/01 03:19:33;;;;;;;26.70;23.88;;;3.80;99.90;;;;;;5017011;28;20041;-80
2022/04/01 03:22:00;;;;;;;25.98;23.30;;;3.80;99.90;;;;;;5027869;28;20041;-80
2022/04/01 03:24:26;;;;;;;24.75;22.35;;;3.80;99.90;;;;;;5012165;28;20057;-80
2022/04/01 03:26:53;;;;;;;26.75;24.23;;;3.80;99.90;;;;;;5016203;28;20585;-80
2022/04/01 03:29:20;;;;;;;24.65;22.55;;;3.80;99.90;;;;;;5010668;28;20041;-80
2022/04/01 03:31:47;;;;;;;24.95;22.65;;;3.70;99.90;;;;;;5016788;28;20040;-80
2022/04/01 03:34:15;;;;;;;24.25;22.05;;;3.70;99.90;;;;;;5015319;28;20052;-79
2022/04/01 03:36:42;;;;;;;26.98;24.05;;;3.70;99.90;;;;;;5014724;28;20044;-80
2022/04/01 03:39:09;;;;;;;23.65;21.20;;;3.70;99.90;;;;;;5028844;28;20041;-79
2022/04/01 03:41:49;;;;;;;24.23;21.75;;;3.70;99.90;;;;;;5013574;28;20037;-81
2022/04/01 03:44:17;;;;;;;22.90;20.52;;;3.70;99.90;;;;;;5014754;28;20053;-81
2022/04/01 03:46:56;;;;;;;22.40;19.63;;;3.70;99.90;;;;;;5016381;28;20400;-81
2022/04/01 03:49:23;;;;;;;22.60;20.02;;;3.70;99.90;;;;;;5033368;28;20028;-78
2022/04/01 03:51:52;;;;;;;23.30;21.15;;;3.60;99.90;;;;;;5000122;28;20048;-79
2022/04/01 03:54:19;;;;;;;22.10;19.95;;;3.60;99.90;;;;;;5014435;28;20521;-80
2022/04/01 03:57:07;;;;;;;21.05;19.35;;;3.70;99.90;;;;;;5034385;28;20040;-81
2022/04/01 03:59:54;;;;;;;22.67;20.42;;;3.60;99.90;;;;;;5040433;28;20052;-80
2022/04/01 04:02:41;;;;;;;23.92;21.52;;;3.60;99.90;;;;;;5029676;28;20052;-81
2022/04/01 04:05:09;;;;;;;22.17;20.23;;;3.60;99.90;;;;;;5015033;28;20038;-80
2022/04/01 04:07:36;;;;;;;24.08;21.60;;;3.60;99.90;;;;;;5014897;28;20041;-80
2022/04/01 04:10:08;;;;;;;22.45;20.38;;;3.60;99.90;;;;;;5015973;28;20518;-79
2022/04/01 04:12:44;;;;;;;23.25;21.25;;;3.60;99.90;;;;;;5015227;28;20045;-81
2022/04/01 04:15:11;;;;;;;22.35;20.10;;;3.60;99.90;;;;;;5026988;28;20049;-80
2022/04/01 04:17:37;;;;;;;22.20;20.10;;;3.60;99.90;;;;;;5014492;28;20041;-81
2022/04/01 04:20:18;;;;;;;21.60;19.38;;;3.60;99.90;;;;;;5016241;28;20056;-81
2022/04/01 04:23:22;;;;;;;21.65;19.63;;;3.60;99.90;;;;;;4998355;28;20056;-80
2022/04/01 04:26:11;;;;;;;21.85;19.75;;;3.60;99.90;;;;;;5013634;28;20037;-80
2022/04/01 04:28:42;;;;;;;21.02;19.13;;;3.60;99.90;;;;;;5014879;28;20050;-81
2022/04/01 04:31:32;;;;;;;21.83;19.65;;;3.60;99.90;;;;;;5034245;28;20052;-80
2022/04/01 04:34:14;;;;;;;22.73;20.45;;;3.60;99.90;;;;;;5013705;28;20050;-76
2022/04/01 04:36:42;;;;;;;26.33;20.65;;;3.60;99.90;;;;;;5018182;28;20049;-81
2022/04/01 04:39:26;;;;;;;23.33;21.08;;;3.60;99.90;;;;;;5015217;28;20052;-82
2022/04/01 04:41:54;;;;;;;23.83;19.77;;;3.60;99.90;;;;;;5033038;28;20045;-81
2022/04/01 04:44:24;;;;;;;22.88;20.75;;;3.50;99.90;;;;;;5036194;28;21997;-81
2022/04/01 04:46:52;;;;;;;23.27;21.08;;;3.50;99.90;;;;;;5019749;28;20037;-81
2022/04/01 04:49:22;;;;;;;23.90;21.45;;;3.50;99.90;;;;;;5015368;28;20471;-82
2022/04/01 04:51:51;;;;;;;22.70;20.63;;;3.50;99.90;;;;;;5015393;28;20063;-81
2022/04/01 04:54:28;;;;;;;26.95;20.35;;;3.50;99.90;;;;;;5009180;28;20514;-81
2022/04/01 04:57:26;;;;;;;24.23;21.88;;;3.40;99.90;;;;;;5025895;28;20049;-81
2022/04/01 04:59:53;;;;;;;23.52;21.00;;;3.40;99.90;;;;;;5032429;28;20045;-81
2022/04/01 05:02:45;;;;;;;24.27;21.77;;;3.40;99.90;;;;;;5025575;28;20494;-80
2022/04/01 05:05:27;;;;;;;24.27;21.63;;;3.40;99.90;;;;;;5015038;28;20156;-80
2022/04/01 05:08:21;;;;;;;24.67;21.48;;;3.40;99.90;;;;;;5030307;28;20037;-80
2022/04/01 05:11:18;;;;;;;17.47;15.43;;;3.40;99.90;;;;;;5036704;28;20394;-80
2022/04/01 05:13:59;;;;;;;24.45;22.10;;;3.40;99.90;;;;;;5014059;28;20292;-79
2022/04/01 05:16:53;;;;;;;23.23;20.80;;;3.30;99.90;;;;;;5014800;28;20046;-79
2022/04/01 05:19:31;;;;;;;25.15;22.52;;;3.30;99.90;;;;;;5013928;28;20108;-80
2022/04/01 05:22:04;;;;;;;24.55;22.08;;;3.40;99.90;;;;;;5010628;28;20117;-79
2022/04/01 05:24:39;;;;;;;;;;;3.40;99.90;;;;;;5028035;28;20060;-79
2022/04/01 05:27:12;;;;;;;24.23;20.25;;;3.40;99.90;;;;;;5013716;28;20394;-81
2022/04/01 05:30:05;;;;;;;28.38;22.48;;;3.40;99.90;;;;;;5017533;28;20052;-77
2022/04/01 05:32:38;;;;;;;20.45;18.67;;;3.40;99.90;;;;;;5007250;28;20046;-80
2022/04/01 05:35:06;;;;;;;20.33;18.35;;;3.40;99.90;;;;;;5006773;28;20053;-79
2022/04/01 05:37:35;;;;;;;24.38;18.30;;;3.40;99.90;;;;;;5015547;28;20041;-79
2022/04/01 05:40:05;;;;;;;20.10;18.08;;;3.40;99.90;;;;;;5016974;28;20479;-78
2022/04/01 05:42:33;;;;;;;21.80;18.88;;;3.40;99.90;;;;;;5015363;28;20050;-80
2022/04/01 05:45:19;;;;;;;20.40;18.42;;;3.40;99.90;;;;;;5015204;28;20048;-81
2022/04/01 05:47:47;;;;;;;20.38;18.23;;;3.50;99.90;;;;;;5011923;28;20045;-80
2022/04/01 05:50:20;;;;;;;26.38;19.17;;;3.50;99.90;;;;;;5010666;28;20038;-80
2022/04/01 05:52:48;;;;;;;22.80;19.23;;;3.50;99.90;;;;;;5010734;28;20041;-81
2022/04/01 05:55:17;;;;;;;22.33;18.98;;;3.50;99.90;;;;;;5005802;28;20399;-80
2022/04/01 05:57:44;;;;;;;19.30;17.38;;;3.50;99.90;;;;;;5007037;28;20050;-79
2022/04/01 06:00:14;;;;;;;18.95;17.10;;;3.60;99.90;;;;;;5012288;28;20037;-80
2022/04/01 06:03:05;;;;;;;19.83;17.75;;;3.50;99.90;;;;;;5010416;28;20046;-80
2022/04/01 06:05:31;;;;;;;19.58;17.67;;;3.50;99.90;;;;;;5009279;28;20113;-80
2022/04/01 06:08:11;;;;;;;19.27;17.40;;;3.50;99.90;;;;;;5009891;28;20045;-80
2022/04/01 06:10:55;;;;;;;19.40;16.55;;;3.50;99.90;;;;;;5010593;28;20038;-80
2022/04/01 06:13:39;;;;;;;20.77;18.65;;;3.50;99.90;;;;;;5011297;28;20053;-81
2022/04/01 06:16:44;;;;;;;19.30;17.52;;;3.50;99.90;;;;;;5010932;28;20383;-82
2022/04/01 06:19:27;;;;;;;20.33;18.33;;;3.40;99.90;;;;;;5010830;28;20038;-84
2022/04/01 06:22:12;;;;;;;19.67;17.73;;;3.40;99.90;;;;;;5009676;28;20061;-82
2022/04/01 06:25:01;;;;;;;20.92;19.02;;;3.40;99.90;;;;;;5004212;28;20042;-84
2022/04/01 06:27:52;;;;;;;22.50;20.27;;;3.40;99.90;;;;;;5007115;28;20069;-77
2022/04/01 06:30:21;;;;;;;20.33;18.35;;;3.40;99.90;;;;;;5010468;28;20493;-84
2022/04/01 06:33:49;;;;;;;20.08;18.27;;;3.50;99.90;;;;;;5011038;28;20402;-81
2022/04/01 06:36:41;;;;;;;19.55;17.65;;;3.60;99.90;;;;;;4989029;28;20450;-80
2022/04/01 06:39:10;;;;;;;17.70;16.02;;;3.60;99.90;;;;;;5014831;28;20038;-79
2022/04/01 06:41:53;;;;;;;16.83;15.32;;;3.60;99.90;;;;;;4997159;28;20052;-81
2022/04/01 06:44:37;;;;;;;16.92;15.20;;;3.50;99.90;;;;;;5017536;28;20053;-82
2022/04/01 06:47:44;;;;;;;15.70;14.30;;;3.50;99.90;;;;;;4986310;28;20050;-81
2022/04/01 06:50:12;;;;;;;15.45;14.10;;;3.50;99.90;;;;;;4965837;28;20046;-84
2022/04/01 06:53:02;;;;;;;16.23;14.68;;;3.50;99.90;;;;;;4988175;28;20553;-84
2022/04/01 06:55:47;;;;;;;16.13;14.55;;;3.60;99.90;;;;;;5015728;28;20049;-84
2022/04/01 06:58:25;;;;;;;16.17;14.68;;;3.60;99.90;;;;;;5010564;28;20396;-82
2022/04/01 07:00:58;;;;;;;21.58;13.65;;;3.50;99.90;;;;;;5011410;28;20042;-86
2022/04/01 07:03:24;;;;;;;15.85;14.05;;;3.60;99.90;;;;;;5020619;28;20029;-85
2022/04/01 07:05:51;;;;;;;18.90;13.43;;;3.50;99.90;;;;;;5011188;28;20029;-86
2022/04/01 07:08:19;;;;;;;18.52;13.25;;;3.50;99.90;;;;;;5019455;28;20049;-87
2022/04/01 07:10:46;;;;;;;14.65;13.20;;;3.50;99.90;;;;;;5015077;28;20041;-86
2022/04/01 07:13:12;;;;;;;18.40;13.43;;;3.50;99.90;;;;;;5011052;28;20038;-89
2022/04/01 07:15:38;;;;;;;14.95;13.63;;;3.60;99.90;;;;;;5011235;28;20034;-84
2022/04/01 07:18:06;;;;;;;15.93;14.10;;;3.60;99.90;;;;;;5011039;28;20036;-85
2022/04/01 07:20:32;;;;;;;12.68;11.65;;;3.50;99.90;;;;;;5010729;28;20026;-78
2022/04/01 07:22:59;;;;;;;14.20;12.80;;;3.50;99.90;;;;;;5013814;28;20038;-78
2022/04/01 07:25:25;;;;;;;15.90;14.40;;;3.50;99.90;;;;;;5012188;28;20069;-79
2022/04/01 07:27:53;;;;;;;15.35;13.75;;;3.50;99.90;;;;;;5031611;28;20046;-79
2022/04/01 07:30:19;;;;;;;13.63;12.38;;;3.50;99.90;;;;;;5034713;28;20040;-79
2022/04/01 07:32:46;;;;;;;16.13;14.48;;;3.50;99.90;;;;;;5015193;28;20049;-77
2022/04/01 07:35:14;;;;;;;14.63;12.65;;;3.40;99.90;;;;;;5012837;28;20042;-77
2022/04/01 07:37:42;;;;;;;14.48;13.15;;;3.50;99.90;;;;;;5019274;28;20045;-77
2022/04/01 07:40:09;;;;;;;14.85;13.45;;;3.40;99.90;;;;;;5012090;28;20056;-76
2022/04/01 07:42:38;;;;;;;14.73;13.23;;;3.50;99.90;;;;;;5015669;28;20034;-80
2022/04/01 07:45:04;;;;;;;15.25;13.75;;;3.40;99.90;;;;;;5000085;28;20471;-79
2022/04/01 07:47:35;;;;;;;12.50;11.35;;;3.40;99.90;;;;;;5018933;28;20720;-79
2022/04/01 07:50:03;;;;;;;15.18;13.60;;;3.30;99.90;;;;;;5014394;28;20475;-79
2022/04/01 07:52:32;;;;;;;13.45;12.10;;;3.20;99.90;;;;;;5019511;28;20041;-79
2022/04/01 07:54:58;;;;;;;17.02;12.48;;;3.20;99.90;;;;;;5014080;28;20052;-77
2022/04/01 07:57:24;;;;;;;13.05;11.85;;;3.30;99.90;;;;;;5029086;28;20475;-77
2022/04/01 07:59:51;;;;;;;15.27;13.02;;;3.30;99.90;;;;;;5034124;28;20034;-76
2022/04/01 08:02:17;;;;;;;13.40;12.05;;;3.30;99.90;;;;;;5016222;28;20053;-79
2022/04/01 08:04:43;;;;;;;13.50;12.25;;;3.30;99.90;;;;;;5014137;28;20523;-80
2022/04/01 08:07:09;;;;;;;14.45;13.05;;;3.30;99.90;;;;;;5032197;28;20458;-79
2022/04/01 08:09:36;;;;;;;12.65;11.52;;;3.30;99.90;;;;;;5028746;28;20398;-78
2022/04/01 08:12:03;;;;;;;15.88;12.55;;;3.30;99.90;;;;;;5011747;28;20037;-79
2022/04/01 08:14:29;;;;;;;15.85;12.40;;;3.30;99.90;;;;;;5032094;28;20037;-78
2022/04/01 08:16:56;;;;;;;14.00;11.98;;;3.30;99.90;;;;;;5033428;28;20038;-80
2022/04/01 08:19:22;;;;;;;16.65;13.15;;;3.40;99.90;;;;;;5012767;28;20044;-77
2022/04/01 08:21:49;;;;;;;14.23;12.40;;;3.30;99.90;;;;;;5032230;28;20029;-77
2022/04/01 08:24:16;;;;;;;13.30;12.07;;;3.30;99.90;;;;;;5032577;28;20041;-78
2022/04/01 08:26:43;;;;;;;13.52;12.07;;;3.40;99.90;;;;;;5014899;28;20053;-77
2022/04/01 08:29:09;;;;;;;12.95;11.55;;;3.50;99.90;;;;;;5029189;28;20037;-80
2022/04/01 08:31:37;;;;;;;15.95;12.10;;;3.30;99.90;;;;;;5029626;28;20059;-81
2022/04/01 08:34:03;;;;;;;17.20;11.70;;;3.20;99.90;;;;;;5031791;28;20368;-77
2022/04/01 08:36:30;;;;;;;14.68;12.13;;;3.30;99.90;;;;;;5029020;28;20022;-77
2022/04/01 08:38:56;;;;;;;11.73;10.70;;;3.20;99.90;;;;;;5032474;28;20176;-76
2022/04/01 08:41:23;;;;;;;12.43;11.18;;;3.20;99.90;;;;;;5031154;28;20052;-76
2022/04/01 08:43:51;;;;;;;14.52;12.32;;;3.30;99.90;;;;;;5033498;28;20038;-76
2022/04/01 08:46:19;;;;;;;12.82;11.52;;;3.30;99.90;;;;;;5033149;28;20459;-77
2022/04/01 08:48:45;;;;;;;14.43;10.75;;;3.30;99.90;;;;;;5031129;28;20029;-78
2022/04/01 08:51:13;;;;;;;13.35;11.98;;;3.30;99.90;;;;;;5029010;28;20042;-77
2022/04/01 08:53:43;;;;;;;15.35;11.82;;;3.30;99.90;;;;;;5033117;28;20045;-80
2022/04/01 08:56:09;;;;;;;11.30;10.20;;;3.20;99.90;;;;;;5019469;28;20033;-79
2022/04/01 08:58:35;;;;;;;16.33;11.23;;;3.10;99.90;;;;;;5033878;28;20042;-78
2022/04/01 09:01:05;;;;;;;11.90;10.90;;;3.10;99.90;;;;;;5016836;28;20025;-78
2022/04/01 09:03:32;;;;;;;12.07;10.50;;;3.10;99.90;;;;;;5013555;28;20061;-79
2022/04/01 09:06:02;;;;;;;11.60;10.55;;;3.10;99.90;;;;;;5029923;28;20045;-79
2022/04/01 09:08:33;;;;;;;13.57;11.82;;;3.00;99.90;;;;;;5016413;28;20040;-78
2022/04/01 09:11:05;;;;;;;12.13;10.82;;;3.00;99.90;;;;;;5031761;28;20041;-79
2022/04/01 09:13:42;;;;;;;13.18;10.20;;;3.00;99.90;;;;;;5017658;28;20053;-79
2022/04/01 09:16:10;;;;;;;10.40;9.43;;;3.00;99.90;;;;;;5015739;28;20033;-78
2022/04/01 09:18:42;;;;;;;13.15;10.50;;;3.00;99.90;;;;;;5027411;28;20040;-79
2022/04/01 09:21:11;;;;;;;11.50;10.10;;;3.00;99.90;;;;;;5028765;28;20022;-78
2022/04/01 09:23:39;;;;;;;10.65;9.82;;;3.10;99.90;;;;;;5012450;28;20056;-79
2022/04/01 09:26:06;;;;;;;18.25;10.40;;;3.10;99.90;;;;;;5014169;28;20419;-79
2022/04/01 09:28:37;;;;;;;18.48;9.52;;;3.10;99.90;;;;;;5013492;28;20049;-78
2022/04/01 09:31:10;;;;;;;11.25;9.88;;;3.10;99.90;;;;;;5015194;28;20041;-78
2022/04/01 09:33:42;;;;;;;10.82;9.52;;;3.10;99.90;;;;;;5027972;28;20038;-79
2022/04/01 09:36:12;;;;;;;12.25;10.23;;;3.10;99.50;;;;;;5008307;28;20044;-78
2022/04/01 09:38:39;;;;;;;11.05;10.07;;;3.10;99.50;;;;;;5029978;28;20471;-79
2022/04/01 09:41:08;;;;;;;9.20;8.30;;;3.20;99.80;;;;;;5036090;28;20505;-78
2022/04/01 09:43:41;;;;;;;11.90;8.55;;;3.20;99.20;;;;;;5030382;28;20037;-79
2022/04/01 09:46:26;;;;;;;14.05;9.20;;;3.10;99.10;;;;;;5029077;28;20029;-79
2022/04/01 09:48:57;;;;;;;10.40;9.40;;;3.20;99.30;;;;;;5026862;28;20037;-78
2022/04/01 09:51:24;;;;;;;9.65;8.75;;;3.10;99.10;;;;;;5020315;28;20471;-77
2022/04/01 09:53:52;;;;;;;10.52;9.52;;;3.00;98.90;;;;;;5013878;28;20037;-78
2022/04/01 09:56:34;;;;;;;9.18;8.07;;;3.10;99.20;;;;;;5028865;28;20033;-78
2022/04/01 09:59:00;;;;;;;10.45;7.85;;;3.10;98.80;;;;;;5016736;28;20505;-77
2022/04/01 10:01:26;;;;;;;10.75;8.82;;;3.10;98.60;;;;;;5042338;28;20029;-78
2022/04/01 10:03:52;;;;;;;8.25;7.45;;;3.10;98.60;;;;;;5036497;28;20467;-78
2022/04/01 10:06:19;;;;;;;9.18;8.27;;;3.10;98.30;;;;;;5031556;28;20048;-77
2022/04/01 10:08:45;;;;;;;11.48;9.73;;;3.10;98.20;;;;;;5031564;28;20056;-77
2022/04/01 10:11:11;;;;;;;8.50;7.70;;;3.10;98.40;;;;;;4996840;28;20041;-78
2022/04/01 10:13:38;;;;;;;8.70;7.80;;;3.10;98.20;;;;;;5026200;28;20044;-79
2022/04/01 10:16:09;;;;;;;9.10;8.20;;;3.10;98.20;;;;;;5024970;28;20044;-78
2022/04/01 10:18:40;;;;;;;9.20;8.10;;;3.10;98.20;;;;;;5007781;28;20036;-78
2022/04/01 10:21:07;;;;;;;;;;;3.20;98.10;;;;;;5022961;28;20044;-78
2022/04/01 10:23:38;;;;;;;8.35;7.20;;;3.30;97.80;;;;;;5006189;28;19917;-78
2022/04/01 10:26:13;;;;;;;8.45;7.28;;;3.30;97.40;;;;;;5025144;28;20513;-79
2022/04/01 10:28:45;;;;;;;10.30;7.95;;;3.20;97.10;;;;;;5026177;28;20080;-79
2022/04/01 10:31:14;;;;;;;8.13;7.38;;;3.10;97.10;;;;;;5009550;28;20376;-78
2022/04/01 10:33:41;;;;;;;8.63;7.82;;;3.10;97.50;;;;;;5028125;28;20025;-78
2022/04/01 10:36:31;;;;;;;13.95;9.20;;;2.90;97.80;;;;;;5011562;28;20045;-79
2022/04/01 10:39:05;;;;;;;16.40;8.85;;;2.90;98.50;;;;;;5031371;28;20485;-79
2022/04/01 10:41:32;;;;;;;7.88;7.10;;;2.90;99.10;;;;;;5026105;28;20128;-79
2022/04/01 10:44:00;;;;;;;7.85;7.10;;;2.80;99.80;;;;;;5027703;28;20100;-80
2022/04/01 10:46:27;;;;;;;9.25;8.35;;;2.80;99.90;;;;;;5025086;28;20052;-83
2022/04/01 10:52:03;;;;;;;9.07;8.15;;;2.90;99.90;;;;;;5030555;28;20025;-82
2022/04/01 10:54:30;;;;;;;11.00;9.35;;;2.80;99.90;;;;;;5029960;28;20104;-82
2022/04/01 10:57:00;;;;;;;10.02;9.13;;;2.80;99.90;;;;;;5030817;28;20625;-80
2022/04/01 10:59:28;;;;;;;7.70;7.00;;;2.80;99.90;;;;;;5031785;28;20054;-82
2022/04/01 11:01:57;;;;;;;10.32;8.40;;;2.80;99.90;;;;;;5029867;28;20040;-77
2022/04/01 11:04:26;;;;;;;10.38;7.78;;;2.80;99.90;;;;;;5024576;28;20041;-77
2022/04/01 11:07:03;;;;;;;8.85;8.05;;;2.80;99.90;;;;;;5026207;28;20038;-78
2022/04/01 11:09:39;;;;;;;9.93;8.80;;;2.70;99.90;;;;;;5027916;28;20423;-78
2022/04/01 11:12:15;;;;;;;10.38;9.10;;;2.70;99.90;;;;;;5013520;28;20042;-77
2022/04/01 11:14:57;;;;;;;9.90;8.63;;;2.70;99.90;;;;;;5028705;28;20045;-82
2022/04/01 11:17:28;;;;;;;9.95;8.98;;;2.70;99.90;;;;;;5022093;28;20048;-85
2022/04/01 11:20:06;;;;;;;12.20;9.98;;;2.70;99.90;;;;;;5014002;28;20044;-84
2022/04/01 11:22:39;;;;;;;9.27;8.52;;;2.60;99.90;;;;;;5032169;28;20427;-85
2022/04/01 11:25:07;;;;;;;10.20;9.10;;;2.60;99.90;;;;;;5012651;28;20037;-87
2022/04/01 11:27:34;;;;;;;16.65;11.48;;;2.60;99.90;;;;;;5036278;28;20502;-87
2022/04/01 11:30:09;;;;;;;9.63;8.70;;;2.50;99.90;;;;;;5018503;28;20045;-86
2022/04/01 11:32:37;;;;;;;15.00;10.43;;;2.50;99.90;;;;;;5037036;28;20029;-85
2022/04/01 11:35:06;;;;;;;13.80;12.43;;;2.60;99.90;;;;;;5034037;28;20049;-88
2022/04/01 11:37:37;;;;;;;10.85;9.75;;;2.60;99.90;;;;;;5032010;28;20033;-89
2022/04/01 11:40:13;;;;;;;10.00;8.93;;;2.60;99.90;;;;;;5035207;28;20032;-86
2022/04/01 11:42:52;;;;;;;10.52;9.50;;;2.40;99.90;;;;;;5040442;28;20323;-85
2022/04/01 11:45:20;;;;;;;9.98;9.18;;;2.40;99.90;;;;;;5035412;28;20478;-86
2022/04/01 11:47:48;;;;;;;10.77;9.77;;;2.50;99.90;;;;;;5028422;28;20025;-86
2022/04/01 11:50:16;;;;;;;9.82;9.02;;;2.30;99.90;;;;;;5017390;28;20045;-88
2022/04/01 11:52:45;;;;;;;10.48;9.38;;;2.30;99.90;;;;;;5041045;28;20037;-84
2022/04/01 11:55:14;;;;;;;17.95;8.35;;;2.40;99.90;;;;;;5031928;28;20467;-87
2022/04/01 11:57:41;;;;;;;11.18;9.57;;;2.30;99.90;;;;;;5027848;28;20053;-84
2022/04/01 12:00:15;;;;;;;9.88;8.80;;;2.30;99.90;;;;;;5032882;28;20033;-87
2022/04/01 12:02:43;;;;;;;9.23;8.40;;;2.40;99.90;;;;;;5037541;28;20048;-84
2022/04/01 12:05:10;;;;;;;11.52;10.40;;;2.20;99.90;;;;;;5029973;28;20048;-86
2022/04/01 12:10:29;;;;;;;10.90;10.00;;;2.00;99.90;;;;;;5014379;28;20042;-86
2022/04/01 12:13:03;;;;;;;12.18;10.85;;;1.90;99.90;;;;;;5036187;28;20032;-86
2022/04/01 12:15:37;;;;;;;12.18;11.07;;;1.90;99.90;;;;;;5022242;28;20333;-89
2022/04/01 12:18:11;;;;;;;15.85;10.70;;;2.00;99.90;;;;;;5034929;28;20368;-86
2022/04/01 12:20:49;;;;;;;12.98;11.52;;;2.00;99.90;;;;;;5016988;28;20471;-80
2022/04/01 12:23:16;;;;;;;14.65;12.13;;;2.00;99.90;;;;;;5033357;28;20036;-87
2022/04/01 12:25:45;;;;;;;12.00;10.82;;;2.00;99.90;;;;;;5033767;28;20037;-88
2022/04/01 12:28:14;;;;;;;13.20;12.05;;;1.90;99.90;;;;;;5034446;28;20037;-89
2022/04/01 12:30:51;;;;;;;13.55;12.25;;;1.90;99.90;;;;;;5015342;28;20037;-85
2022/04/01 12:33:32;;;;;;;13.55;12.13;;;1.90;99.90;;;;;;5021586;28;20045;-83
2022/04/01 12:36:04;;;;;;;15.15;12.82;;;1.90;99.90;;;;;;5035737;28;20044;-87
2022/04/01 12:38:35;;;;;;;14.10;12.68;;;1.90;99.90;;;;;;5033389;28;20033;-86
2022/04/01 12:41:04;;;;;;;13.68;12.25;;;1.90;99.90;;;;;;5032649;28;20060;-85
2022/04/01 12:43:44;;;;;;;12.15;11.00;;;1.80;99.90;;;;;;5033028;28;20040;-86
2022/04/01 12:46:12;;;;;;;14.25;12.85;;;1.80;99.90;;;;;;5034392;28;20038;-90
2022/04/01 12:49:14;;;;;;;12.80;11.73;;;1.90;99.90;;;;;;5029003;28;20101;-86
2022/04/01 12:51:58;;;;;;;13.20;12.00;;;1.90;99.90;;;;;;5017889;28;20056;-86
2022/04/01 12:54:39;;;;;;;12.98;11.88;;;1.80;99.90;;;;;;5029413;28;20056;-87
2022/04/01 12:57:11;;;;;;;14.52;12.98;;;1.90;99.90;;;;;;5032246;28;20041;-85
2022/04/01 12:59:41;;;;;;;12.82;11.75;;;1.80;99.90;;;;;;5028045;28;20053;-79
2022/04/01 13:02:14;;;;;;;14.65;13.23;;;1.70;99.90;;;;;;5034560;28;20030;-87
2022/04/01 13:04:48;;;;;;;12.10;10.98;;;1.70;99.90;;;;;;5016331;28;20479;-87
2022/04/01 13:07:18;;;;;;;13.55;12.18;;;1.70;99.90;;;;;;5032637;28;20493;-80
2022/04/01 13:09:52;;;;;;;13.20;12.00;;;1.80;99.90;;;;;;5011063;28;20042;-81
2022/04/01 13:12:36;;;;;;;17.77;12.88;;;1.80;99.90;;;;;;5032909;28;20048;-81
2022/04/01 13:15:03;;;;;;;13.18;12.00;;;1.80;99.90;;;;;;5029873;28;20140;-80